Latest Weather Observations for Melbourne (Olympic Park)

IDV60801

Issued at 11:32 pm EST Monday 25 July 2016 (issued every 30 minutes, with the page automatically refreshed every 10 minutes)

About weather observations | Map of weather stations | Latest weather observations for VIC | Other Formats
Station Details ID: 086338 Name: MELBOURNE (OLYMPIC PARK) Lat: -37.83 Lon: 144.98 Height: 7.53 m
Data from the previous 72 hours. | See also: Recent months at Melbourne (Olympic Park)
Date/Time
EST
Temp
°C
App
Temp
°C
Dew
Point
°C
Rel
Hum
%
Delta-T
°C
Wind Press
QNH
hPa
Press
MSL
hPa
Rain since
9am
mm
Dir  Spd
km/h
Gust
km/h
Spd
kts
Gust
kts
25/11:30pm 8.8 4.5 1.2 59 3.1 WNW 13 28 7 15 1008.5 1008.5 4.8
25/11:00pm 8.8 3.9 1.7 61 2.9 NW 17 26 9 14 1008.2 1008.2 4.8
25/10:30pm 8.8 3.9 1.7 61 2.9 NW 17 32 9 17 1007.8 1007.8 4.8
25/10:00pm 8.3 3.8 2.3 66 2.5 NW 15 24 8 13 1007.3 1007.3 4.8
25/09:30pm 9.2 3.8 1.1 57 3.3 NW 19 26 10 14 1007.1 1007.1 4.8
25/09:00pm 10.6 5.4 2.4 57 3.5 NW 19 35 10 19 1006.9 1006.9 4.8
25/08:30pm 10.5 6.4 4.4 66 2.7 W 15 30 8 16 1006.4 1006.4 4.8
25/08:00pm 11.0 7.1 5.3 68 2.6 NW 15 28 8 15 1005.8 1005.8 4.8
25/07:30pm 10.7 6.9 7.6 81 1.5 NNW 17 26 9 14 1005.1 1005.1 4.8
25/07:07pm 9.8 7.2 7.9 88 0.9 WNW 11 20 6 11 1006.2 - 4.8
25/07:00pm 9.7 6.3 7.6 87 1.0 NW 15 33 8 18 1005.0 1005.0 4.8
25/06:33pm 11.2 7.4 7.5 78 1.8 W 17 32 9 17 1006.2 - 1.2
25/06:30pm 11.6 8.1 7.3 75 2.1 WNW 15 24 8 13 1004.9 1004.9 0.8
25/06:00pm 12.2 5.7 6.3 67 2.8 NNW 30 50 16 27 1002.9 1002.9 0.0
25/05:30pm 12.3 6.0 5.7 64 3.1 N 28 48 15 26 1002.6 1002.6 0.0
25/05:00pm 12.4 6.0 5.3 62 3.3 N 28 54 15 29 1002.7 1002.7 0.0
25/04:57pm 12.4 6.1 5.6 63 3.2 N 28 54 15 29 1002.7 1002.7 0.0
25/04:30pm 12.5 6.4 5.0 60 3.5 NNW 26 44 14 24 1003.4 1003.4 0.0
25/04:08pm 12.9 6.4 4.6 57 3.8 N 28 59 15 32 1003.6 1003.6 0.0
25/04:00pm 13.2 7.4 4.4 55 4.0 N 24 43 13 23 1003.7 1003.7 0.0
25/03:30pm 13.2 5.6 3.8 53 4.2 NNW 33 56 18 30 1004.1 1004.1 0.0
25/03:16pm 13.4 6.7 3.8 52 4.3 NNW 28 50 15 27 1004.3 1004.3 0.0
25/03:15pm 13.4 6.7 3.5 51 4.4 N 28 50 15 27 1005.2 - 0.0
25/03:00pm 13.3 6.9 3.4 51 4.5 NNW 26 43 14 23 1004.7 1004.7 0.0
25/02:45pm 13.1 6.3 3.2 51 4.4 N 28 50 15 27 1004.8 1004.8 0.0
25/02:30pm 13.3 7.2 2.8 49 4.6 NNW 24 43 13 23 1005.0 1005.0 0.0
25/02:18pm 13.2 6.4 3.3 51 4.4 NNW 28 50 15 27 1005.2 1005.2 0.0
25/02:00pm 13.4 6.7 3.5 51 4.5 NNW 28 43 15 23 1005.5 1005.5 0.0
25/01:39pm 13.6 6.3 2.5 47 4.9 NNW 30 50 16 27 1006.1 1006.1 0.0
25/01:30pm 13.9 7.9 3.4 49 4.7 NNW 24 41 13 22 1006.2 1006.2 0.0
25/01:00pm 13.3 7.5 2.5 48 4.8 NNW 22 39 12 21 1007.2 1007.2 0.0
25/12:30pm 13.0 7.9 4.2 55 4.0 NNW 20 32 11 17 1007.7 1007.7 0.0
25/12:00pm 13.0 8.4 3.9 54 4.1 NW 17 39 9 21 1007.9 1007.9 0.0
25/11:30am 12.4 9.2 4.9 60 3.4 WNW 11 19 6 10 1008.6 1008.6 0.0
25/11:00am 11.7 8.7 5.8 67 2.8 NNW 11 20 6 11 1009.0 1009.0 0.0
25/10:30am 11.6 7.8 5.7 67 2.7 NW 15 26 8 14 1009.1 1009.1 0.0
25/10:00am 11.5 7.3 5.8 68 2.7 NW 17 32 9 17 1009.0 1009.0 0.0
25/09:30am 10.8 7.3 5.6 70 2.4 NNW 13 24 7 13 1008.9 1008.9 0.0
25/09:00am 9.5 5.8 4.7 72 2.1 N 13 19 7 10 1008.9 1008.9 0.0
25/08:30am 9.2 4.8 4.6 73 2.0 N 17 26 9 14 1008.7 1008.7 0.0
25/08:00am 9.5 4.7 4.5 71 2.2 NNW 19 28 10 15 1008.4 1008.4 0.0
25/07:30am 9.2 5.5 4.4 72 2.1 N 13 20 7 11 1008.0 1008.0 0.0
25/07:00am 8.9 4.8 4.1 72 2.1 N 15 24 8 13 1007.5 1007.5 0.0
25/06:30am 8.8 4.7 4.2 73 2.0 N 15 22 8 12 1007.2 1007.2 0.0
25/06:00am 8.5 4.7 3.9 73 2.0 N 13 19 7 10 1006.9 1006.9 0.0
25/05:30am 8.7 4.5 3.7 71 2.2 N 15 20 8 11 1006.6 1006.6 0.0
25/05:00am 9.0 4.4 3.8 70 2.3 NNW 17 28 9 15 1006.4 1006.4 0.0
25/04:30am 8.5 4.7 3.8 72 2.0 N 13 20 7 11 1006.1 1006.1 0.0
25/04:00am 8.4 4.6 3.7 72 2.0 N 13 20 7 11 1005.8 1005.8 0.0
25/03:30am 8.2 4.4 3.9 74 1.9 N 13 22 7 12 1005.5 1005.5 0.0
25/03:00am 7.9 4.1 3.9 76 1.7 N 13 24 7 13 1005.6 1005.6 0.0
25/02:30am 7.7 3.9 4.1 78 1.6 N 13 20 7 11 1005.6 1005.6 0.0
25/02:00am 7.6 3.9 4.2 79 1.5 N 13 19 7 10 1005.5 1005.5 0.0
25/01:30am 7.7 4.3 4.1 78 1.6 N 11 13 6 7 1005.4 1005.4 0.0
25/01:00am 8.3 5.0 4.3 76 1.8 N 11 19 6 10 1005.4 1005.4 0.0
25/12:30am 8.3 5.0 4.3 76 1.7 N 11 19 6 10 1005.3 1005.3 0.0
25/12:00am 8.7 5.0 4.3 74 1.9 N 13 19 7 10 1005.4 1005.4 0.0
 
Date/Time
EST
Temp
°C
App
Temp
°C
Dew
Point
°C
Rel
Hum
%
Delta-T
°C
Wind Press
QNH
hPa
Press
MSL
hPa
Rain since
9am
mm
Dir  Spd
km/h
Gust
km/h
Spd
kts
Gust
kts
24/11:30pm 8.9 4.8 4.3 73 2.0 N 15 20 8 11 1005.3 1005.3 0.0
24/11:00pm 9.2 5.5 4.4 72 2.1 N 13 17 7 9 1005.1 1005.1 0.0
24/10:30pm 8.9 5.3 4.9 76 1.8 N 13 17 7 9 1005.0 1005.0 0.0
24/10:00pm 9.0 5.1 5.2 77 1.7 N 15 22 8 12 1005.2 1005.2 0.0
24/09:30pm 9.2 4.8 4.8 74 2.0 N 17 24 9 13 1005.4 1005.4 0.0
24/09:00pm 9.1 4.3 4.5 73 2.0 N 19 26 10 14 1005.3 1005.3 0.0
24/08:30pm 9.3 4.1 3.7 68 2.4 N 20 32 11 17 1005.1 1005.1 0.0
24/08:00pm 9.9 5.0 4.3 68 2.5 N 19 30 10 16 1005.3 1005.3 0.0
24/07:30pm 10.0 5.4 5.4 73 2.1 N 19 28 10 15 1005.3 1005.3 0.0
24/07:00pm 9.6 6.0 5.0 73 2.1 N 13 20 7 11 1005.2 1005.2 0.0
24/06:30pm 9.5 5.4 4.5 71 2.2 NNE 15 24 8 13 1004.9 1004.9 0.0
24/06:00pm 9.7 5.2 4.3 69 2.4 N 17 26 9 14 1005.0 1005.0 0.0
24/05:30pm 10.0 5.9 4.6 69 2.4 N 15 26 8 14 1005.0 1005.0 0.0
24/05:00pm 9.9 5.1 4.7 70 2.3 N 19 30 10 16 1005.4 1005.4 0.0
24/04:30pm 10.0 5.0 4.6 69 2.4 N 20 35 11 19 1005.9 1005.9 0.0
24/04:00pm 10.0 4.6 4.6 69 2.4 N 22 39 12 21 1005.9 1005.9 0.0
24/03:30pm 10.4 4.2 4.3 66 2.7 N 26 44 14 24 1006.3 1006.3 0.0
24/03:00pm 10.7 5.6 4.2 64 2.9 N 20 37 11 20 1006.6 1006.6 0.0
24/02:30pm 11.0 5.5 4.2 63 3.0 N 22 33 12 18 1006.8 1006.8 0.0
24/02:00pm 10.3 4.3 3.3 62 3.1 N 24 37 13 20 1007.1 1007.1 0.0
24/01:30pm 10.3 3.9 3.3 62 3.0 N 26 41 14 22 1007.4 1007.4 0.0
24/01:00pm 10.5 5.4 4.2 65 2.8 N 20 30 11 16 1008.1 1008.1 0.0
24/12:30pm 10.5 5.3 3.8 63 3.0 N 20 39 11 21 1008.4 1008.4 0.0
24/12:20pm 10.0 3.2 3.3 63 2.9 NNW 28 46 15 25 1008.5 1008.5 0.0
24/12:00pm 9.9 3.2 3.4 64 2.8 NNW 28 48 15 26 1008.9 1008.9 0.0
24/11:57am 10.0 3.3 3.5 64 2.8 NNW 28 48 15 26 1009.9 - 0.0
24/11:30am 9.7 3.3 3.2 64 2.8 N 26 39 14 21 1009.5 1009.5 0.0
24/11:00am 9.2 3.6 3.2 66 2.6 N 22 35 12 19 1010.0 1010.0 0.0
24/10:30am 9.1 3.9 3.3 67 2.5 NNW 20 43 11 23 1010.4 1010.4 0.0
24/10:00am 8.6 3.5 2.8 67 2.5 N 19 32 10 17 1010.3 1010.3 0.0
24/09:30am 7.4 3.4 2.9 73 1.9 NNE 13 20 7 11 1010.5 1010.5 0.0
24/09:00am 6.4 2.0 2.5 76 1.6 NNE 15 26 8 14 1010.8 1010.8 0.8
24/08:30am 5.4 1.2 1.9 78 1.4 NNE 13 20 7 11 1010.8 1010.8 0.8
24/08:00am 4.9 1.5 1.9 81 1.2 NNE 9 13 5 7 1010.9 1010.9 0.8
24/07:30am 5.0 1.2 1.8 80 1.3 N 11 17 6 9 1011.1 1011.1 0.8
24/07:00am 5.0 1.2 1.8 80 1.3 N 11 17 6 9 1011.1 1011.1 0.8
24/06:30am 5.0 1.6 1.8 80 1.3 N 9 15 5 8 1011.0 1011.0 0.8
24/06:00am 5.0 1.2 1.8 80 1.3 N 11 17 6 9 1011.1 1011.1 0.8
24/05:30am 5.1 0.9 1.6 78 1.4 N 13 19 7 10 1011.2 1011.2 0.8
24/05:00am 5.5 0.9 1.8 77 1.5 N 15 22 8 12 1011.5 1011.5 0.8
24/04:30am 6.0 2.2 1.9 75 1.7 N 11 15 6 8 1011.9 1011.9 0.8
24/04:00am 5.5 1.7 2.0 78 1.4 N 11 17 6 9 1012.3 1012.3 0.8
24/03:30am 5.6 1.8 1.7 76 1.6 N 11 15 6 8 1012.2 1012.2 0.8
24/03:00am 6.1 1.9 1.8 74 1.7 N 13 17 7 9 1012.3 1012.3 0.8
24/02:30am 6.4 2.2 1.7 72 1.9 N 13 20 7 11 1012.3 1012.3 0.8
24/02:00am 6.5 2.7 2.0 73 1.8 N 11 17 6 9 1012.4 1012.4 0.8
24/01:30am 6.5 3.5 2.0 73 1.8 NNW 7 13 4 7 1012.3 1012.3 0.8
24/01:00am 6.8 3.4 2.1 72 1.9 NNW 9 17 5 9 1012.4 1012.4 0.8
24/12:30am 7.0 3.3 2.5 73 1.9 NNW 11 17 6 9 1012.6 1012.6 0.8
24/12:00am 7.1 3.9 2.8 74 1.8 N 9 13 5 7 1012.9 1012.9 0.8
 
Date/Time
EST
Temp
°C
App
Temp
°C
Dew
Point
°C
Rel
Hum
%
Delta-T
°C
Wind Press
QNH
hPa
Press
MSL
hPa
Rain since
9am
mm
Dir  Spd
km/h
Gust
km/h
Spd
kts
Gust
kts
23/11:30pm 7.5 3.9 3.0 73 1.9 NNW 11 17 6 9 1013.0 1013.0 0.8
23/11:00pm 8.0 4.5 3.3 72 2.0 NW 11 17 6 9 1013.2 1013.2 0.8
23/10:30pm 8.1 5.0 3.4 72 2.0 NW 9 15 5 8 1013.2 1013.2 0.8
23/10:00pm 8.1 5.4 3.8 74 1.9 WNW 7 15 4 8 1013.1 1013.1 0.8
23/09:30pm 8.2 4.0 3.9 74 1.9 NW 15 24 8 13 1013.1 1013.1 0.8
23/09:00pm 8.2 4.0 3.9 74 1.9 NNW 15 24 8 13 1012.9 1012.9 0.8
23/08:30pm 8.4 4.6 3.8 73 2.0 WNW 13 24 7 13 1012.8 1012.8 0.8
23/08:00pm 7.7 5.0 3.7 76 1.7 WNW 7 11 4 6 1012.4 1012.4 0.8
23/07:30pm 7.8 4.8 4.0 77 1.6 WNW 9 15 5 8 - - 0.8
23/07:00pm 8.3 5.9 4.1 75 1.8 WNW 6 9 3 5 1012.2 1012.2 0.6
23/06:30pm 8.3 5.4 4.5 77 1.7 NW 9 13 5 7 1011.6 1011.6 0.6
23/06:00pm 8.7 5.7 3.9 72 2.1 W 9 17 5 9 1011.3 1011.3 0.6
23/05:30pm 8.5 5.5 4.1 74 1.9 WNW 9 17 5 9 1010.7 1010.7 0.6
23/05:00pm 8.6 5.2 3.8 72 2.1 W 11 24 6 13 1010.2 1010.2 0.6
23/04:30pm 8.4 4.7 4.2 75 1.8 W 13 22 7 12 1009.8 1009.8 0.6
23/04:00pm 8.0 3.8 3.7 74 1.9 W 15 26 8 14 1009.8 1009.8 0.4
23/03:30pm 9.1 5.2 3.3 67 2.5 W 13 32 7 17 1009.3 1009.3 0.4
23/03:00pm 9.5 5.2 3.3 65 2.7 WNW 15 28 8 15 1008.6 1008.6 0.2
23/02:30pm 9.1 5.0 4.1 71 2.2 NW 15 30 8 16 1008.2 1008.2 0.2
23/02:00pm 10.9 6.5 2.7 57 3.5 W 15 35 8 19 1007.5 1007.5 0.0
23/01:30pm 11.2 6.6 1.5 51 4.1 W 15 32 8 17 1007.3 1007.3 0.0
23/01:00pm 10.6 5.6 1.4 53 3.9 WNW 17 35 9 19 1007.2 1007.2 0.0
23/12:30pm 10.6 6.0 1.4 53 3.8 WNW 15 41 8 22 1007.2 1007.2 0.0
23/12:00pm 9.8 4.9 1.7 57 3.4 WNW 17 33 9 18 1007.1 1007.1 0.0
23/11:30am 9.2 4.6 1.4 58 3.2 WNW 15 33 8 18 1007.4 1007.4 0.0
23/11:00am 9.2 4.6 1.4 58 3.2 W 15 33 8 18 1007.2 1007.2 0.0
23/10:30am 9.4 4.5 -0.5 50 3.9 W 15 30 8 16 1006.6 1006.6 0.0
23/10:00am 9.3 3.7 0.0 52 3.7 WSW 19 33 10 18 1005.8 1005.8 0.0
23/09:30am 9.3 5.0 1.2 57 3.3 W 13 20 7 11 1005.1 1005.1 0.0
23/09:00am 8.9 5.0 1.3 59 3.1 WNW 11 24 6 13 1004.5 1004.5 2.8
23/08:30am 8.0 3.9 2.3 67 2.4 WNW 13 26 7 14 1004.0 1004.0 2.8
23/08:00am 7.6 4.5 3.6 76 1.7 WNW 9 19 5 10 1003.5 1003.5 2.8
23/07:30am 7.6 4.2 4.2 79 1.5 WNW 11 20 6 11 1002.8 1002.8 2.8
23/07:00am 8.2 3.7 4.4 77 1.7 W 17 28 9 15 1002.3 1002.3 2.8
23/06:30am 8.6 4.9 4.6 76 1.8 W 13 24 7 13 1001.1 1001.1 2.8
23/06:00am 8.9 4.5 4.5 74 2.0 W 17 33 9 18 1000.3 1000.3 2.8
23/05:30am 9.1 6.6 4.9 75 1.9 W 7 17 4 9 999.3 999.3 2.8
23/05:00am 9.1 5.9 4.9 75 1.9 WNW 11 30 6 16 998.6 998.6 2.8
23/04:30am 9.1 5.5 5.1 76 1.8 WNW 13 26 7 14 998.0 998.0 2.8
23/04:00am 8.8 5.7 5.5 80 1.5 W 11 20 6 11 997.4 997.4 2.8
23/03:30am 9.1 5.1 5.1 76 1.8 W 15 28 8 15 996.8 996.8 2.8
23/03:00am 9.5 4.5 4.7 72 2.2 W 20 44 11 24 996.2 996.2 2.8
23/02:30am 10.3 6.6 4.7 68 2.5 WNW 13 33 7 18 995.0 995.0 2.8
23/02:00am 10.6 5.4 3.6 62 3.1 NW 20 39 11 21 993.9 993.9 2.8
23/01:30am 10.3 6.1 4.0 65 2.8 NW 15 26 8 14 993.3 993.3 2.8
23/01:00am 10.6 5.3 5.2 69 2.5 NW 22 39 12 21 993.7 993.7 2.8
23/12:30am 10.0 7.2 6.9 81 1.5 NNW 11 19 6 10 993.6 993.6 2.8
23/12:00am 9.7 7.3 7.0 83 1.3 NW 9 15 5 8 993.6 993.6 2.6
 
Date/Time
EST
Temp
°C
App
Temp
°C
Dew
Point
°C
Rel
Hum
%
Delta-T
°C
Wind Press
QNH
hPa
Press
MSL
hPa
Rain since
9am
mm
Dir  Spd
km/h
Gust
km/h
Spd
kts
Gust
kts
22/11:50pm 9.7 6.8 6.4 80 1.5 WNW 11 24 6 13 994.5 - 2.6
22/11:38pm 9.6 6.4 7.0 84 1.2 WSW 13 26 7 14 994.7 - 2.6

Other Formats:

Comma delimited format used in spreadsheet applications
http://www.bom.gov.au/fwo/IDV60801/IDV60801.95936.axf

JavaScript Object Notation format (JSON) in row-major order
http://www.bom.gov.au/fwo/IDV60801/IDV60801.95936.json